Time;durP1;ratioP1;P1;durP2;ratioP2;P2;SDS_P1;SDS_P2;PMS_P1;PMS_P2;Temp;Humidity;BMP_temperature;BMP_pressure;BME280_temperature;BME280_humidity;BME280_pressure;Samples;Min_cycle;Max_cycle;Signal;HPM_P1;HPM_P2
2021/11/03 00:01:36;;;;;;;33.90;18.52;;;5.50;99.90;;;6.39;100.00;99071.59;4958820;29;20042;-81
2021/11/03 00:04:08;;;;;;;32.35;17.90;;;5.50;99.90;;;6.47;100.00;99074.13;4941155;29;20395;-83
2021/11/03 00:06:38;;;;;;;38.80;19.70;;;5.50;99.90;;;6.49;100.00;99077.31;4942379;29;20534;-83
2021/11/03 00:09:05;;;;;;;40.67;20.95;;;5.60;99.90;;;6.52;100.00;99076.56;4968462;28;20039;-83
2021/11/03 00:11:33;;;;;;;42.80;21.15;;;5.70;99.90;;;6.57;100.00;99070.75;4977848;28;20119;-82
2021/11/03 00:13:59;;;;;;;39.45;21.10;;;5.70;99.90;;;6.61;100.00;99063.28;4960354;28;20035;-85
2021/11/03 00:16:25;;;;;;;37.28;18.98;;;5.80;99.90;;;6.73;100.00;99060.31;4977413;28;20035;-84
2021/11/03 00:18:51;;;;;;;37.92;19.38;;;5.80;99.90;;;6.71;100.00;99067.41;4960170;28;20031;-80
2021/11/03 00:21:17;;;;;;;35.47;19.23;;;5.80;99.90;;;6.68;100.00;99065.34;4959835;28;20042;-83
2021/11/03 00:23:43;;;;;;;38.53;18.67;;;5.80;99.90;;;6.70;100.00;99061.06;4959898;28;20406;-84
2021/11/03 00:26:10;;;;;;;47.28;20.80;;;5.70;99.90;;;6.60;100.00;99063.66;4977134;28;20509;-85
2021/11/03 00:28:36;;;;;;;35.47;19.45;;;5.70;99.90;;;6.63;100.00;99074.81;4977824;28;20030;-80
2021/11/03 00:31:03;;;;;;;34.95;19.08;;;5.70;99.90;;;6.65;100.00;99068.88;4977432;28;20093;-83
2021/11/03 00:33:32;;;;;;;38.75;20.55;;;5.70;99.90;;;6.60;100.00;99069.19;4959830;28;20030;-82
2021/11/03 00:36:00;;;;;;;38.45;19.10;;;5.60;99.90;;;6.53;100.00;99060.75;4960018;28;20105;-81
2021/11/03 00:38:28;;;;;;;36.58;19.70;;;5.60;99.90;;;6.47;100.00;99067.78;4959840;28;20046;-82
2021/11/03 00:40:55;;;;;;;37.95;20.23;;;5.60;99.90;;;6.50;100.00;99067.03;4944460;28;20031;-82
2021/11/03 00:43:23;;;;;;;38.17;19.92;;;5.60;99.90;;;6.50;100.00;99055.94;4945716;28;20551;-83
2021/11/03 00:45:49;;;;;;;43.22;21.48;;;5.60;99.90;;;6.50;100.00;99055.94;4978557;28;20027;-83
2021/11/03 00:48:16;;;;;;;38.30;20.10;;;5.50;99.90;;;6.50;100.00;99053.16;4945031;28;20130;-82
2021/11/03 00:50:45;;;;;;;38.00;20.35;;;5.50;99.90;;;6.45;100.00;99053.47;4960163;28;20035;-83
2021/11/03 00:53:11;;;;;;;33.17;18.63;;;5.50;99.90;;;6.40;100.00;99059.31;4944903;28;20073;-84
2021/11/03 00:55:37;;;;;;;33.10;17.90;;;5.40;99.90;;;6.33;100.00;99060.00;4960410;28;20065;-81
2021/11/03 00:58:06;;;;;;;34.75;20.10;;;5.40;99.90;;;6.25;100.00;99059.06;4977778;28;20031;-84
2021/11/03 01:00:34;;;;;;;37.97;18.55;;;5.30;99.90;;;6.14;100.00;99057.25;4959722;28;20035;-82
2021/11/03 01:03:00;;;;;;;42.90;21.70;;;5.20;99.90;;;6.14;100.00;99060.84;4976995;28;20031;-84
2021/11/03 01:05:28;;;;;;;39.28;20.65;;;5.20;99.90;;;6.15;100.00;99058.88;4960008;28;20030;-80
2021/11/03 01:07:54;;;;;;;43.95;22.23;;;5.30;99.90;;;6.14;100.00;99055.28;4959033;28;20129;-83
2021/11/03 01:10:26;;;;;;;43.60;22.17;;;5.30;99.90;;;6.20;100.00;99055.78;4940715;29;20035;-85
2021/11/03 01:12:53;;;;;;;41.03;22.20;;;5.30;99.90;;;6.22;100.00;99051.50;4956745;29;20035;-83
2021/11/03 01:15:25;;;;;;;40.30;20.13;;;5.30;99.90;;;6.23;100.00;99046.72;4940819;29;20071;-80
2021/11/03 01:17:55;;;;;;;42.95;21.73;;;5.30;99.90;;;6.15;100.00;99037.50;4940940;29;20050;-82
2021/11/03 01:20:23;;;;;;;43.17;21.95;;;5.30;99.90;;;6.23;100.00;99036.44;4939782;29;20031;-80
2021/11/03 01:22:49;;;;;;;43.97;22.25;;;5.30;99.90;;;6.19;100.00;99029.25;4957274;29;20035;-82
2021/11/03 01:25:17;;;;;;;48.70;22.33;;;5.30;99.90;;;6.27;100.00;99025.41;4957250;28;20031;-82
2021/11/03 01:27:43;;;;;;;50.70;22.40;;;5.40;99.90;;;6.27;100.00;99026.22;4924811;29;20027;-82
2021/11/03 01:30:15;;;;;;;37.70;21.20;;;5.40;99.90;;;6.29;100.00;99031.41;4957056;29;20394;-84
2021/11/03 01:32:41;;;;;;;38.53;20.33;;;5.40;99.90;;;6.33;100.00;99032.25;4940991;29;20393;-81
2021/11/03 01:35:10;;;;;;;37.13;19.73;;;5.40;99.90;;;6.30;100.00;99038.53;4957958;29;20038;-82
2021/11/03 01:37:37;;;;;;;37.97;19.80;;;5.30;99.90;;;6.24;100.00;99038.06;4925084;29;20043;-84
2021/11/03 01:40:14;;;;;;;33.55;18.33;;;5.30;99.90;;;6.13;100.00;99039.03;4940890;29;20027;-83
2021/11/03 01:42:41;;;;;;;40.35;19.48;;;5.20;99.90;;;6.11;100.00;99041.34;4924503;29;20035;-84
2021/11/03 01:45:13;;;;;;;32.60;17.75;;;5.20;99.90;;;6.06;100.00;99036.13;4940344;29;20027;-83
2021/11/03 01:47:45;;;;;;;28.63;16.08;;;5.10;99.90;;;5.90;100.00;99029.88;4957239;29;20035;-84
2021/11/03 01:50:24;;;;;;;32.13;17.23;;;4.90;99.90;;;5.78;100.00;99039.91;4940942;29;20386;-84
2021/11/03 01:53:11;;;;;;;28.67;15.85;;;4.80;99.90;;;5.65;100.00;99032.91;4942242;29;20054;-83
2021/11/03 01:55:50;;;;;;;26.27;13.98;;;4.70;99.90;;;5.48;100.00;99027.81;4942899;29;20039;-82
2021/11/03 01:58:26;;;;;;;25.55;14.57;;;4.50;99.90;;;5.32;100.00;99036.19;4925067;29;20121;-82
2021/11/03 02:00:58;;;;;;;;;;;4.30;99.90;;;5.19;100.00;99036.66;4926406;29;20046;-81
2021/11/03 02:03:30;;;;;;;27.83;14.80;;;4.20;99.90;;;5.10;100.00;99038.84;4941267;29;19928;-82
2021/11/03 02:06:19;;;;;;;30.67;15.20;;;4.10;99.90;;;5.06;100.00;99041.50;4924553;29;20126;-85
2021/11/03 02:08:49;;;;;;;32.33;15.40;;;4.10;99.90;;;4.99;100.00;99037.75;4938076;29;20046;-84
2021/11/03 02:11:20;;;;;;;27.35;15.27;;;4.00;99.90;;;4.97;100.00;99046.44;4938810;29;20082;-83
2021/11/03 02:13:47;;;;;;;32.15;15.48;;;3.90;99.90;;;4.85;100.00;99043.75;4956117;29;20024;-82
2021/11/03 02:16:18;;;;;;;44.50;19.58;;;3.90;99.90;;;4.86;100.00;99044.56;4939324;29;20043;-83
2021/11/03 02:18:46;;;;;;;49.13;20.58;;;4.00;99.90;;;4.98;100.00;99041.69;4940006;29;20055;-83
2021/11/03 02:21:23;;;;;;;49.97;21.77;;;4.10;99.90;;;5.20;100.00;99043.81;4956934;28;20027;-83
2021/11/03 02:24:19;;;;;;;43.25;20.85;;;4.30;99.90;;;5.32;100.00;99032.59;4938500;29;20089;-83
2021/11/03 02:26:49;;;;;;;50.95;21.05;;;4.40;99.90;;;5.39;100.00;99031.97;4939835;29;20031;-83
2021/11/03 02:29:22;;;;;;;43.35;21.27;;;4.50;99.90;;;5.45;100.00;99031.31;4955906;29;20027;-80
2021/11/03 02:32:09;;;;;;;44.92;19.25;;;4.50;99.90;;;5.51;100.00;99027.09;4940266;29;20062;-85
2021/11/03 02:34:35;;;;;;;44.13;20.38;;;4.60;99.90;;;5.58;100.00;99016.16;4925464;29;20464;-83
2021/11/03 02:37:29;;;;;;;37.67;17.80;;;4.60;99.90;;;5.47;100.00;99008.78;4955425;28;20074;-80
2021/11/03 02:40:29;;;;;;;36.75;18.00;;;4.50;99.90;;;5.33;100.00;99007.31;4938832;29;20042;-84
2021/11/03 02:43:10;;;;;;;29.98;15.38;;;4.40;99.90;;;5.26;100.00;99007.19;4938507;29;20284;-82
2021/11/03 02:45:56;;;;;;;34.53;15.77;;;4.30;99.90;;;5.19;100.00;99006.22;4938814;29;20126;-82
2021/11/03 02:48:27;;;;;;;35.65;17.50;;;4.20;99.90;;;5.14;100.00;98995.41;4987031;23;20047;-81
2021/11/03 02:51:22;;;;;;;28.80;15.43;;;4.20;99.90;;;5.11;100.00;98991.41;4958127;28;20054;-80
2021/11/03 02:54:01;;;;;;;31.42;15.85;;;4.10;99.90;;;4.95;100.00;98989.84;4975892;28;20081;-81
2021/11/03 02:56:32;;;;;;;31.67;16.27;;;4.00;99.90;;;4.86;100.00;98981.75;4974528;28;20064;-80
2021/11/03 02:58:58;;;;;;;33.00;16.85;;;3.90;99.90;;;4.85;100.00;98976.59;4959208;28;20062;-82
2021/11/03 03:01:42;;;;;;;38.03;17.83;;;3.90;99.90;;;4.88;100.00;98973.09;4978857;28;20031;-82
2021/11/03 03:04:22;;;;;;;42.63;19.67;;;3.90;99.90;;;5.05;100.00;98972.69;4977622;28;20054;-80
2021/11/03 03:06:49;;;;;;;31.38;16.70;;;4.10;99.90;;;5.19;100.00;98970.25;4959881;28;20035;-81
2021/11/03 03:09:21;;;;;;;30.55;15.30;;;4.10;99.90;;;5.16;100.00;98976.50;4976286;28;20035;-80
2021/11/03 03:11:57;;;;;;;29.85;15.18;;;4.10;99.90;;;5.01;100.00;98971.81;4977725;28;20070;-81
2021/11/03 03:14:32;;;;;;;30.05;16.08;;;4.00;99.90;;;4.94;100.00;98971.66;4961728;28;20520;-80
2021/11/03 03:16:58;;;;;;;28.25;15.30;;;3.90;99.90;;;4.88;100.00;98973.09;4975749;28;20114;-80
2021/11/03 03:19:25;;;;;;;35.25;16.58;;;3.90;99.90;;;4.78;100.00;98978.00;4978369;28;20057;-80
2021/11/03 03:21:50;;;;;;;28.23;14.55;;;3.80;99.90;;;4.65;100.00;98981.28;4962220;28;20035;-80
2021/11/03 03:24:18;;;;;;;31.90;16.15;;;3.60;99.90;;;4.50;100.00;98985.63;4980384;28;20469;-80
2021/11/03 03:26:47;;;;;;;26.10;14.55;;;3.50;99.90;;;4.38;100.00;98988.50;4978958;28;20350;-79
2021/11/03 03:29:13;;;;;;;24.33;12.85;;;3.40;99.90;;;4.23;100.00;98983.78;4978919;28;20356;-81
2021/11/03 03:31:40;;;;;;;25.40;12.85;;;3.30;99.90;;;4.08;100.00;98982.59;4975615;28;20062;-81
2021/11/03 03:34:14;;;;;;;27.05;14.23;;;3.10;99.90;;;4.05;100.00;98977.00;4975659;28;20037;-80
2021/11/03 03:36:42;;;;;;;33.90;15.90;;;3.10;99.90;;;4.00;100.00;98977.25;4976462;28;20394;-80
2021/11/03 03:39:13;;;;;;;25.25;13.90;;;3.10;99.90;;;3.92;100.00;98973.50;4959171;28;20106;-80
2021/11/03 03:41:45;;;;;;;26.95;13.13;;;3.00;99.90;;;3.76;100.00;98969.91;4974985;28;20090;-80
2021/11/03 03:44:11;;;;;;;29.42;14.32;;;2.80;99.90;;;3.71;100.00;98978.47;4974739;28;20388;-80
2021/11/03 03:46:37;;;;;;;28.75;14.45;;;2.80;99.90;;;3.70;100.00;98983.19;4975723;28;20037;-78
2021/11/03 03:49:03;;;;;;;33.15;15.65;;;2.80;99.90;;;3.73;100.00;98976.94;4980975;28;20109;-81
2021/11/03 03:51:29;;;;;;;28.33;14.63;;;2.80;99.90;;;3.76;100.00;98989.25;4979284;28;20039;-81
2021/11/03 03:53:56;;;;;;;36.50;16.55;;;2.80;99.90;;;3.75;100.00;98979.38;4980128;28;20046;-81
2021/11/03 03:56:22;;;;;;;31.02;15.25;;;2.80;99.90;;;3.71;100.00;98982.03;4980458;28;20134;-80
2021/11/03 03:58:50;;;;;;;28.17;13.93;;;2.80;99.90;;;3.67;100.00;98981.13;4980161;28;20086;-82
2021/11/03 04:01:22;;;;;;;27.27;13.65;;;2.70;99.90;;;3.59;100.00;98993.13;4962653;28;20073;-79
2021/11/03 04:03:48;;;;;;;30.25;14.15;;;2.60;99.90;;;3.49;100.00;98995.59;4980542;28;20042;-81
2021/11/03 04:06:15;;;;;;;26.77;14.55;;;2.60;99.90;;;3.35;100.00;98995.97;4980376;28;20034;-80
2021/11/03 04:08:41;;;;;;;24.90;13.48;;;2.50;99.90;;;3.23;100.00;99003.50;4972519;28;20034;-81
2021/11/03 04:11:08;;;;;;;31.13;14.82;;;2.40;99.90;;;3.16;100.00;99009.59;4958987;28;20118;-80
2021/11/03 04:13:35;;;;;;;28.67;13.85;;;2.30;99.90;;;3.18;100.00;99010.06;4959040;28;20032;-80
2021/11/03 04:16:02;;;;;;;33.90;16.13;;;2.30;99.90;;;3.24;100.00;99007.88;4959392;28;20035;-80
2021/11/03 04:18:28;;;;;;;36.55;18.05;;;2.30;99.90;;;3.34;100.00;99001.88;4958563;28;20031;-80
2021/11/03 04:20:56;;;;;;;36.17;16.58;;;2.40;99.90;;;3.45;100.00;99017.56;4960120;28;20035;-82
2021/11/03 04:23:22;;;;;;;34.10;16.25;;;2.50;99.90;;;3.55;100.00;99019.84;4960525;28;20039;-78
2021/11/03 04:25:49;;;;;;;35.35;16.33;;;2.60;99.90;;;3.63;100.00;99016.09;4958598;28;20173;-82
2021/11/03 04:28:15;;;;;;;36.20;17.23;;;2.70;99.90;;;3.73;100.00;99020.31;4958608;28;20039;-79
2021/11/03 04:30:44;;;;;;;37.63;18.42;;;2.80;99.90;;;3.86;100.00;99021.88;4959773;29;20094;-81
2021/11/03 04:33:13;;;;;;;39.08;17.20;;;2.90;99.90;;;4.02;100.00;99028.22;4960383;28;20059;-80
2021/11/03 04:35:39;;;;;;;35.75;17.08;;;3.00;99.90;;;4.17;100.00;99018.38;4959676;28;20035;-80
2021/11/03 04:38:05;;;;;;;36.17;17.40;;;3.20;99.90;;;4.37;100.00;99016.50;4957768;28;20522;-81
2021/11/03 04:40:32;;;;;;;41.20;17.00;;;3.40;99.90;;;4.54;100.00;99019.72;4959639;28;20046;-78
2021/11/03 04:43:00;;;;;;;31.38;15.52;;;3.50;99.90;;;4.66;100.00;99018.81;4957943;28;20036;-79
2021/11/03 04:45:27;;;;;;;33.35;15.60;;;3.70;99.90;;;4.75;100.00;99028.50;4958522;28;20052;-81
2021/11/03 04:47:54;;;;;;;33.17;16.27;;;3.70;99.90;;;4.82;100.00;99024.34;4957975;28;20035;-80
2021/11/03 04:50:29;;;;;;;29.48;14.10;;;3.80;99.90;;;4.83;100.00;99023.16;4958440;29;20039;-79
2021/11/03 04:52:56;;;;;;;35.00;15.60;;;3.80;99.90;;;4.88;100.00;99028.44;4958074;28;20050;-80
2021/11/03 04:55:23;;;;;;;32.22;16.15;;;3.90;99.90;;;4.92;100.00;99040.38;4957604;28;20051;-80
2021/11/03 04:57:49;;;;;;;29.52;13.80;;;3.90;99.90;;;4.94;100.00;99035.28;4943088;28;20067;-80
2021/11/03 05:00:28;;;;;;;30.30;14.73;;;3.90;99.90;;;4.97;100.00;99029.03;4958826;28;20405;-79
2021/11/03 05:02:55;;;;;;;27.40;13.73;;;4.00;99.90;;;5.00;100.00;99042.94;4957062;28;20050;-80
2021/11/03 05:05:24;;;;;;;28.63;15.05;;;4.00;99.90;;;5.04;100.00;99041.06;4959238;28;20111;-79
2021/11/03 05:07:51;;;;;;;31.38;13.05;;;4.00;99.90;;;5.08;100.00;99039.19;4956920;28;20030;-80
2021/11/03 05:10:19;;;;;;;30.30;13.45;;;4.10;99.90;;;5.07;100.00;99037.56;4977652;28;20409;-80
2021/11/03 05:12:47;;;;;;;32.53;14.02;;;4.10;99.90;;;5.14;100.00;99028.63;4976904;28;20038;-80
2021/11/03 05:15:14;;;;;;;28.77;13.18;;;4.20;99.90;;;5.30;100.00;99021.06;4976743;28;20035;-79
2021/11/03 05:17:40;;;;;;;30.95;13.65;;;4.30;99.90;;;5.44;100.00;99028.88;4977481;28;20085;-79
2021/11/03 05:20:08;;;;;;;28.27;14.13;;;4.40;99.90;;;5.54;100.00;99028.31;4978937;28;20053;-81
2021/11/03 05:22:35;;;;;;;27.73;13.80;;;4.50;99.90;;;5.56;100.00;99021.25;4978651;28;20035;-80
2021/11/03 05:25:01;;;;;;;27.10;13.77;;;4.50;99.90;;;5.49;100.00;99028.63;4978647;28;20073;-80
2021/11/03 05:27:27;;;;;;;21.70;11.68;;;4.50;99.90;;;5.58;100.00;99024.47;4977394;28;20026;-78
2021/11/03 05:29:53;;;;;;;23.45;11.65;;;4.50;99.90;;;5.57;100.00;99024.81;4993454;28;20045;-82
2021/11/03 05:32:19;;;;;;;23.75;12.13;;;4.50;99.90;;;5.53;100.00;99019.22;4977027;28;20034;-82
2021/11/03 05:34:45;;;;;;;23.02;11.38;;;4.40;99.90;;;5.48;100.00;99013.16;4979268;28;20105;-80
2021/11/03 05:37:16;;;;;;;20.85;10.90;;;4.40;99.90;;;5.36;100.00;99011.34;4979796;28;20496;-81
2021/11/03 05:39:44;;;;;;;21.00;12.00;;;4.30;99.90;;;5.20;100.00;99021.66;4979187;28;20045;-80
2021/11/03 05:42:11;;;;;;;19.65;10.80;;;4.20;99.90;;;5.11;100.00;99018.28;4977850;28;20386;-82
2021/11/03 05:44:38;;;;;;;24.40;12.05;;;4.10;99.90;;;5.05;100.00;99022.50;4979311;28;20066;-82
2021/11/03 05:47:06;;;;;;;23.88;12.50;;;4.00;99.90;;;5.03;100.00;99019.28;4979089;28;20038;-81
2021/11/03 05:49:35;;;;;;;25.92;12.60;;;4.00;99.90;;;5.06;100.00;99013.03;4980450;28;20039;-83
2021/11/03 05:52:05;;;;;;;30.55;13.43;;;4.00;99.90;;;5.01;100.00;99014.09;4982289;28;20042;-84
2021/11/03 05:54:31;;;;;;;24.85;12.50;;;4.00;99.90;;;4.98;100.00;99011.25;4990489;28;20031;-80
2021/11/03 05:57:02;;;;;;;21.50;10.95;;;3.90;99.90;;;4.98;100.00;99002.94;4983428;28;20125;-81
2021/11/03 05:59:31;;;;;;;25.17;13.00;;;3.90;99.90;;;5.02;100.00;99009.38;4977253;28;20058;-81
2021/11/03 06:01:58;;;;;;;20.88;10.52;;;4.00;99.90;;;5.02;100.00;99006.59;4976415;28;20332;-79
2021/11/03 06:04:25;;;;;;;19.42;10.20;;;4.00;99.90;;;4.94;100.00;98997.38;4978220;28;20038;-79
2021/11/03 06:06:51;;;;;;;22.10;11.27;;;3.90;99.90;;;4.93;100.00;99009.59;4989556;28;20133;-80
2021/11/03 06:09:17;;;;;;;19.10;10.50;;;3.90;99.90;;;4.92;100.00;99019.03;4989512;28;20031;-80
2021/11/03 06:11:45;;;;;;;20.88;10.02;;;3.90;99.90;;;4.90;100.00;99028.88;4988387;28;20082;-80
2021/11/03 06:14:12;;;;;;;22.30;11.55;;;3.80;99.90;;;4.90;100.00;99020.56;5004390;28;20027;-79
2021/11/03 06:16:38;;;;;;;26.77;13.00;;;3.90;99.90;;;4.93;100.00;99012.34;4992608;28;20023;-80
2021/11/03 06:19:06;;;;;;;27.65;12.73;;;3.90;99.90;;;4.98;100.00;99014.81;4991467;28;20038;-80
2021/11/03 06:21:32;;;;;;;27.20;12.73;;;3.90;99.90;;;5.00;100.00;99022.78;4983982;28;20039;-81
2021/11/03 06:24:00;;;;;;;22.00;11.43;;;3.90;99.90;;;4.98;100.00;99022.31;4974764;28;20027;-81
2021/11/03 06:26:26;;;;;;;21.52;10.00;;;3.90;99.90;;;4.97;100.00;99020.75;4959789;29;20522;-80
2021/11/03 06:28:52;;;;;;;21.13;11.10;;;3.90;99.90;;;4.94;100.00;99013.97;4958911;28;20468;-82
2021/11/03 06:31:19;;;;;;;22.48;11.15;;;3.90;99.90;;;4.95;100.00;99025.81;4960361;28;20031;-79
2021/11/03 06:33:45;;;;;;;20.10;11.55;;;3.90;99.90;;;4.95;100.00;99029.38;4958502;28;20027;-81
2021/11/03 06:36:15;;;;;;;25.90;14.63;;;3.90;99.90;;;4.89;100.00;99035.56;4958013;28;20487;-80
2021/11/03 06:38:40;;;;;;;28.60;14.57;;;3.90;99.90;;;4.84;100.00;99031.13;4940347;29;20194;-84
2021/11/03 06:41:10;;;;;;;29.05;14.45;;;3.80;99.90;;;4.86;100.00;99030.72;4957514;28;20464;-83
2021/11/03 06:43:36;;;;;;;23.10;12.63;;;3.80;99.90;;;4.89;100.00;99027.25;4957255;28;20041;-80
2021/11/03 06:46:03;;;;;;;25.15;13.00;;;3.90;99.90;;;4.92;100.00;99032.06;4961439;28;20027;-81
2021/11/03 06:48:29;;;;;;;31.58;14.80;;;3.90;99.90;;;4.96;100.00;99028.22;4957591;28;20035;-80
2021/11/03 06:50:58;;;;;;;38.63;18.85;;;3.90;99.90;;;5.01;100.00;99027.94;4973062;28;20045;-80
2021/11/03 06:53:26;;;;;;;42.78;22.25;;;4.00;99.90;;;5.07;100.00;99023.72;4976227;28;20027;-81
2021/11/03 06:55:54;;;;;;;40.72;20.45;;;4.00;99.90;;;5.12;100.00;99019.88;4974598;28;20041;-80
2021/11/03 06:58:22;;;;;;;29.40;15.65;;;4.10;99.90;;;5.13;100.00;99027.03;4994162;28;20058;-78
2021/11/03 07:00:52;;;;;;;22.83;13.05;;;4.10;99.90;;;5.08;100.00;99030.06;4977886;28;20035;-79
2021/11/03 07:03:22;;;;;;;26.85;13.23;;;4.00;99.90;;;5.06;100.00;99030.44;4976407;28;20085;-79
2021/11/03 07:05:50;;;;;;;34.33;15.07;;;4.00;99.90;;;5.12;100.00;99034.53;4975115;28;20498;-78
2021/11/03 07:08:20;;;;;;;30.42;15.40;;;4.00;99.90;;;5.17;100.00;99036.22;4971057;28;20031;-80
2021/11/03 07:10:50;;;;;;;32.72;15.98;;;4.10;99.90;;;5.24;100.00;99033.59;4955758;29;20110;-79
2021/11/03 07:13:19;;;;;;;28.60;15.40;;;4.20;99.90;;;5.29;100.00;99030.56;4954540;29;20096;-79
2021/11/03 07:15:47;;;;;;;43.95;22.67;;;4.20;99.90;;;5.36;100.00;99041.00;4955147;28;20059;-80
2021/11/03 07:18:13;;;;;;;37.17;19.02;;;4.20;99.90;;;5.34;100.00;99044.09;4955993;29;20039;-79
2021/11/03 07:20:42;;;;;;;31.35;15.82;;;4.30;99.90;;;5.36;100.00;99041.00;4955582;29;20055;-81
2021/11/03 07:23:11;;;;;;;43.75;21.38;;;4.20;99.90;;;5.41;100.00;99032.38;4958419;28;20039;-80
2021/11/03 07:25:37;;;;;;;37.78;18.17;;;4.30;99.90;;;5.47;100.00;99026.19;4960548;28;20106;-82
2021/11/03 07:28:03;;;;;;;35.03;16.77;;;4.40;99.90;;;5.56;100.00;99023.19;4959803;29;20446;-81
2021/11/03 07:30:36;;;;;;;37.70;17.30;;;4.40;99.90;;;5.60;100.00;99033.19;4959275;29;20031;-81
2021/11/03 07:33:08;;;;;;;37.70;18.75;;;4.50;99.90;;;5.76;100.00;99031.16;4960206;28;20355;-80
2021/11/03 07:35:36;;;;;;;34.90;16.67;;;4.60;99.90;;;5.95;100.00;99021.25;4943482;29;20039;-81
2021/11/03 07:38:06;;;;;;;35.85;17.98;;;4.80;99.90;;;6.06;100.00;99025.84;4959105;28;20039;-80
2021/11/03 07:40:44;;;;;;;35.63;18.67;;;4.90;99.90;;;6.15;100.00;99022.81;4943212;28;20034;-80
2021/11/03 07:43:15;;;;;;;32.53;14.90;;;5.00;99.90;;;6.15;100.00;99029.19;4960100;28;20028;-80
2021/11/03 07:45:43;;;;;;;28.70;15.88;;;5.00;99.90;;;6.19;100.00;99015.38;4943990;29;20036;-82
2021/11/03 07:48:11;;;;;;;31.73;14.80;;;5.10;99.90;;;6.26;100.00;99007.22;4943098;29;20384;-79
2021/11/03 07:50:46;;;;;;;25.90;14.10;;;5.10;99.90;;;6.25;100.00;99016.69;4959463;29;20509;-81
2021/11/03 07:53:15;;;;;;;27.80;13.63;;;5.10;99.90;;;6.26;100.00;99016.28;4960470;28;20043;-80
2021/11/03 07:55:51;;;;;;;27.45;14.38;;;5.10;99.90;;;6.28;100.00;99016.75;4961080;28;20046;-80
2021/11/03 07:58:24;;;;;;;28.10;14.70;;;5.20;99.90;;;6.35;100.00;99022.44;4960895;29;20039;-82
2021/11/03 08:00:53;;;;;;;34.30;16.67;;;5.20;99.90;;;6.42;100.00;99020.94;4959163;28;20035;-80
2021/11/03 08:03:18;;;;;;;30.75;16.42;;;5.30;99.90;;;6.51;100.00;99022.31;4960121;28;20035;-82
2021/11/03 08:05:49;;;;;;;30.35;16.45;;;5.30;99.90;;;6.60;100.00;99033.13;4958636;29;20027;-80
2021/11/03 08:08:17;;;;;;;28.67;16.00;;;5.40;99.90;;;6.69;100.00;99022.59;4943512;28;20339;-80
2021/11/03 08:10:44;;;;;;;26.13;15.23;;;5.50;99.90;;;6.76;100.00;99029.06;4974900;28;20027;-80
2021/11/03 08:13:16;;;;;;;24.75;14.75;;;5.60;99.90;;;6.85;100.00;99034.34;4960361;28;20487;-80
2021/11/03 08:15:47;;;;;;;27.30;14.68;;;5.60;99.90;;;6.89;100.00;99030.47;4958713;29;20035;-79
2021/11/03 08:18:16;;;;;;;29.35;15.40;;;5.70;99.90;;;6.96;100.00;99028.97;4959229;28;20042;-81
2021/11/03 08:20:43;;;;;;;30.00;15.52;;;5.80;99.90;;;6.96;100.00;99031.75;4958657;28;20039;-81
2021/11/03 08:23:11;;;;;;;28.08;14.63;;;5.80;99.90;;;7.04;100.00;99036.22;4959916;28;20152;-81
2021/11/03 08:25:38;;;;;;;26.20;13.95;;;5.80;99.90;;;7.06;100.00;99045.78;4959838;28;20031;-80
2021/11/03 08:28:05;;;;;;;25.88;14.80;;;5.90;99.90;;;7.11;100.00;99050.22;4961517;29;20055;-81
2021/11/03 08:30:32;;;;;;;26.98;15.38;;;5.90;99.90;;;7.19;100.00;99049.94;4958970;29;20062;-81
2021/11/03 08:33:08;;;;;;;25.75;14.45;;;6.00;99.90;;;7.24;100.00;99049.63;4958108;28;20074;-80
2021/11/03 08:35:41;;;;;;;31.90;15.60;;;6.00;99.90;;;7.18;100.00;99053.09;4958172;29;20453;-80
2021/11/03 08:38:16;;;;;;;25.52;15.65;;;6.10;99.90;;;7.24;100.00;99060.72;4958473;29;20115;-80
2021/11/03 08:40:44;;;;;;;25.92;15.38;;;6.10;99.90;;;7.34;100.00;99057.31;4958478;29;20027;-81
2021/11/03 08:43:21;;;;;;;26.08;15.05;;;6.20;99.90;;;7.45;100.00;99062.22;4959690;28;20443;-80
2021/11/03 08:45:48;;;;;;;26.58;14.70;;;6.30;99.90;;;7.49;100.00;99058.28;4960865;28;20043;-80
2021/11/03 08:48:14;;;;;;;30.45;16.13;;;6.30;99.90;;;7.56;100.00;99057.59;5000842;23;20047;-80
2021/11/03 08:50:42;;;;;;;24.67;15.05;;;6.30;99.90;;;7.60;100.00;99059.25;4977611;28;20023;-79
2021/11/03 08:53:08;;;;;;;22.83;13.85;;;6.40;99.90;;;7.81;100.00;99061.50;4976526;28;20054;-80
2021/11/03 08:55:34;;;;;;;25.83;15.10;;;6.50;99.90;;;8.14;100.00;99060.72;4985058;28;20045;-82
2021/11/03 08:58:09;;;;;;;27.67;16.60;;;6.50;99.90;;;8.23;99.00;99064.78;4987394;28;20034;-83
2021/11/03 09:00:37;;;;;;;30.13;16.33;;;6.50;99.90;;;7.87;100.00;99063.56;4990662;28;20031;-84
2021/11/03 09:03:05;;;;;;;29.10;14.65;;;6.60;99.90;;;7.82;100.00;99058.34;4981361;28;20090;-83
2021/11/03 09:05:32;;;;;;;26.30;15.60;;;6.60;99.90;;;7.97;99.28;99053.75;4982751;28;20557;-83
2021/11/03 09:08:00;;;;;;;29.60;15.88;;;6.50;99.90;;;7.79;100.00;99048.00;4977595;28;20056;-81
2021/11/03 09:10:34;;;;;;;28.83;15.32;;;6.50;99.90;;;7.76;100.00;99051.53;4978334;28;20137;-80
2021/11/03 09:13:01;;;;;;;27.85;15.93;;;6.50;99.90;;;7.73;100.00;99048.69;4981353;28;20063;-81
2021/11/03 09:15:27;;;;;;;28.98;15.85;;;6.50;99.90;;;7.78;100.00;99043.59;4962959;28;20039;-82
2021/11/03 09:17:54;;;;;;;27.30;15.95;;;6.60;99.90;;;7.72;100.00;99047.91;4977071;28;20129;-80
2021/11/03 09:20:24;;;;;;;30.40;16.05;;;6.60;99.90;;;7.79;100.00;99039.66;4976197;28;20034;-79
2021/11/03 09:22:51;;;;;;;22.88;14.48;;;6.60;99.90;;;7.85;100.00;99043.69;4958868;28;20035;-79
2021/11/03 09:25:22;;;;;;;27.40;15.25;;;6.60;99.90;;;7.95;100.00;99036.66;4975188;28;20027;-82
2021/11/03 09:27:50;;;;;;;26.23;15.00;;;6.70;99.90;;;7.92;100.00;99027.09;4959416;28;20027;-81
2021/11/03 09:30:25;;;;;;;31.88;15.02;;;6.80;99.90;;;8.00;100.00;99036.31;4975530;28;20501;-80
2021/11/03 09:32:56;;;;;;;23.35;13.70;;;6.80;99.90;;;8.07;100.00;99033.63;4975279;28;20077;-81
2021/11/03 09:35:27;;;;;;;26.20;14.43;;;6.80;99.90;;;8.08;99.81;99040.78;4960078;28;20071;-80
2021/11/03 09:37:56;;;;;;;26.75;14.27;;;6.90;99.90;;;8.02;99.84;99039.53;4960548;28;20038;-81
2021/11/03 09:41:00;;;;;;;26.52;15.38;;;6.90;99.90;;;8.10;98.85;99037.63;4975646;28;20035;-80
2021/11/03 09:43:40;;;;;;;27.08;13.77;;;6.90;99.90;;;8.12;98.47;99038.06;4975406;28;20355;-80
2021/11/03 09:46:25;;;;;;;25.50;14.32;;;6.90;99.90;;;8.09;98.93;99036.81;4976580;28;20031;-80
2021/11/03 09:49:24;;;;;;;20.05;14.25;;;6.90;99.90;;;8.14;99.27;99033.69;4977448;28;20045;-80
2021/11/03 09:52:15;;;;;;;24.27;13.80;;;6.90;99.90;;;8.20;99.60;99028.59;4977553;28;20043;-82
2021/11/03 09:54:49;;;;;;;24.95;14.00;;;7.00;99.90;;;8.22;99.04;99029.81;4963473;28;20513;-79
2021/11/03 09:57:47;;;;;;;28.67;14.32;;;7.10;99.90;;;8.22;98.69;99032.59;4976865;28;20035;-79
2021/11/03 10:00:45;;;;;;;25.60;14.73;;;7.00;99.90;;;8.07;98.24;99036.41;4976782;28;20520;-80
2021/11/03 10:03:23;;;;;;;27.90;16.15;;;7.00;99.90;;;8.00;98.79;99035.50;4984308;28;20031;-81
2021/11/03 10:06:44;;;;;;;22.88;14.90;;;6.90;99.90;;;8.05;99.17;99022.09;4987305;28;20073;-80
2021/11/03 10:09:11;;;;;;;26.65;15.95;;;6.90;99.90;;;8.52;96.68;99034.50;4975955;28;20141;-82
2021/11/03 10:11:46;;;;;;;29.67;16.73;;;6.90;99.90;;;8.26;98.10;99035.41;4977155;28;20026;-80
2021/11/03 10:14:13;;;;;;;28.27;17.58;;;6.90;99.90;;;8.19;98.77;99035.31;4964455;28;20038;-81
2021/11/03 10:17:20;;;;;;;26.40;17.50;;;6.90;99.90;;;8.20;99.09;99037.75;4990215;28;20039;-81
2021/11/03 10:19:46;;;;;;;28.42;17.65;;;7.00;99.90;;;8.19;98.80;99033.34;4961084;28;20069;-81
2021/11/03 10:22:36;;;;;;;31.83;18.10;;;7.00;99.90;;;8.51;97.74;99044.81;4977275;28;20040;-81
2021/11/03 10:25:25;;;;;;;29.55;17.88;;;7.10;99.90;;;8.93;96.25;99036.03;4976144;28;20086;-81
2021/11/03 10:28:00;;;;;;;26.48;16.45;;;7.20;99.90;;;9.02;94.84;99036.53;4978373;28;20047;-81